Relevés horaires Schaffen (Belgique)


Relevés horaires à Schaffen - Samedi 26 Août 2017
Heure UTC1 Température [°C] Vent [km/h] Hum. [%] Pres.4 [hPa] Visi. [Km] Nébu. [octa] Préc.5 [mm] Cond.
2m. Res. Ros. Dir.2 Vit. Moy. Raf.3
23:00 17.4 17.4 13.5 NNO 1.9 -- 5.6 78 1017.1(0.4/3h) 11 -- -- --
22:00 17.8 17.8 13.2 N 3.7 -- 7.4 74 1017(0.7/3h) 19 -- -- --
21:00 18.5 18.5 13.8 NNO 5.6 -- 7.4 74 1016.8(1.1/3h) 20 -- -- --
20:00 19.7 19.7 14.5 NNO 3.7 -- 7.4 72 1016.6(0.9/3h) 19 -- -- --
19:00 20.6 20.6 15.4 NNO 5.6 -- 7.4 72 1016.2(0.5/3h) 16 -- -- --
18:00 22.2 22.2 15.8 N 3.7 -- 9.3 67 1015.7(0.0/3h) 16 -- -- --
17:00 23.8 23.8 15.3 NNO 1.9 -- 7.4 59 1015.6(0.0/3h) 20 -- -- --
16:00 25.0 25.0 14.4 NO 5.6 -- 7.4 52 1015.5(0.0/3h) 16 -- -- --
15:00 24.8 24.8 13.8 NO 3.7 -- 9.3 50 1015.6(0.0/3h) 20 -- -- --
14:00 25.6 25.6 14.5 O 5.6 -- 9.3 50 1015.5(-0.2/3h) 20 -- -- --
13:00 25.3 25.3 13.5 NNO 1.9 -- 7.4 48 1015.5(-0.1/3h) 20 -- -- --
12:00 24.4 24.4 13.3 N 3.7 -- 7.4 50 1015.5(-0.3/3h) 19 -- -- --
11:00 22.6 22.6 14.5 NNO 1.9 -- 3.7 60 1015.7(0.2/3h) 16 -- -- --
10:00 21.3 21.3 14.8 NNO 1.9 -- 3.7 66 1015.7(0.2/3h) 13 -- -- --
09:00 20.2 20.2 15.1 NNO 1.9 -- 5.6 73 1015.8(0.5/3h) 15 -- -- --
08:00 19.5 19.5 14.4 NNO 1.9 -- 3.7 72 1015.7(0.3/3h) 19 -- -- --
07:00 18.0 18.0 14.5 NNO 1.9 -- 3.7 80 1015.6(0.3/3h) 20 -- -- --
06:00 16.8 16.8 14.3 NNO 1.9 -- 3.7 85 1015.3(0.2/3h) 18 -- -- --
05:00 16.8 16.8 13.8 NNO 1.9 -- 1.9 82 1015.3(-0.2/3h) 16 -- -- --
04:00 17.0 17.0 13.5 NNO 1.9 -- 1.9 80 1015.2(-0.3/3h) 19 -- -- --
03:00 16.8 16.8 13.3 NNO 1.9 -- 3.7 80 1015.2(-0.4/3h) 18 -- -- --
02:00 17.2 17.2 13.6 NNO 1.9 -- 3.7 79 1015.6(-0.4/3h) 17 -- -- --
01:00 17.3 17.3 13.5 N 3.7 -- 3.7 78 1015.5(-0.4/3h) 20 -- -- --
00:00 17.8 17.8 13.6 NNO 1.9 -- 5.6 76 1015.7(-0.5/3h) 20 -- -- --

1 Coordinated Universal Time. Actuellement il est 03:00 locale et 02:00 UTC.

2 Le vent souffle depuis la direction indiquée vers la direction oposée.

3 Les rafales max. sont disponible 40 min après l'heure du relevé.

4 Pour les stations d'altitude (plus de 600m) le géopotentiel du niveau le plus proche de la pression obligatoire est indiqué.

5 Les stations disposant d'un diffuseur peuvent indiquer "trace". Cela signifie que des précipitations ont touchés le sol mais que la quantité est inférieure à 0.1 mm.

Récapitulatif de la journée
Température [°C] Vent [km/h] Ensoleillement4 [h] Precipitations totale5 [mm] Pression [Hpa]
Min1 Max.2 Moy.3 Max. Min Max.
16.5 26.5 0 9.3 0 h 0 min 0 1015.2 1017.1

1 Température minimale relevée entre 18:00 UTC la veille et 18:00 UTC le jour donné.

2 Température maximale relevée entre 06:00 UTC le jour donné et 06:00 UTC le lendemain.

3 Vent moyen de la journée basé sur les relevés horaires.

4 Ensoleillement en heures relevé entre 06:00 UTC la veille et 06:00 UTC le jour donné.

5 Précipitations totales tombées entre 06:00 UTC la jour donné et 06:00 UTC le lendemain.

Graphiques horaires